Time;durP1;ratioP1;P1;durP2;ratioP2;P2;SDS_P1;SDS_P2;PMS_P1;PMS_P2;Temp;Humidity;BMP_temperature;BMP_pressure;BME280_temperature;BME280_humidity;BME280_pressure;Samples;Min_cycle;Max_cycle;Signal;HPM_P1;HPM_P2
2021/08/09 00:00:55;;;;;;;1.83;1.33;;;;;;;16.83;77.26;92661.44;4762235;30;20574;-93
2021/08/09 00:04:20;;;;;;;;;;;;;;;;;;;;;
2021/08/09 00:18:25;;;;;;;;;;;;;;;;;;;;;
2021/08/09 00:22:04;;;;;;;;;;;;;;;;;;;;;
2021/08/09 00:25:37;;;;;;;;;;;;;;;;;;;;;
2021/08/09 00:32:30;;;;;;;1.85;1.38;;;;;;;16.67;76.96;92680.78;4750646;30;20579;-94
2021/08/09 00:38:47;;;;;;;1.65;1.55;;;;;;;16.36;77.17;92645.63;4740836;30;20510;-93
2021/08/09 00:42:07;;;;;;;;;;;;;;;;;;;;;
2021/08/09 00:56:40;;;;;;;;;;;;;;;;;;;;;
2021/08/09 01:00:04;;;;;;;1.60;1.25;;;;;;;16.46;76.08;92692.06;4694586;30;20114;-93
2021/08/09 01:11:24;;;;;;;;;;;;;;;;;;;;;
2021/08/09 01:19:16;;;;;;;;;;;;;;;;;;;;;
2021/08/09 01:26:39;;;;;;;;;;;;;;;;;;;;;
2021/08/09 01:30:15;;;;;;;1.67;1.05;;;;;;;15.92;75.96;92652.13;4791762;30;20062;-94
2021/08/09 01:37:23;;;;;;;;;;;;;;;;;;;;;
2021/08/09 01:41:03;;;;;;;2.50;1.35;;;;;;;16.02;76.05;92688.78;4779934;30;20151;-93
2021/08/09 01:44:21;;;;;;;;;;;;;;;;;;;;;
2021/08/09 01:47:34;;;;;;;1.20;0.87;;;;;;;16.03;76.23;92706.97;4790711;30;20055;-93
2021/08/09 01:54:50;;;;;;;2.15;1.50;;;;;;;15.82;76.77;92695.50;4760365;30;20060;-95
2021/08/09 01:58:07;;;;;;;1.58;1.05;;;;;;;15.52;76.91;92655.00;4763928;30;20047;-92
2021/08/09 02:01:45;;;;;;;;;;;;;;;;;;;;;
2021/08/09 02:12:05;;;;;;;2.60;1.42;;;;;;;15.76;77.13;92702.00;4784174;30;20055;-93
2021/08/09 02:15:09;;;;;;;;;;;;;;;;;;;;;
2021/08/09 02:18:27;;;;;;;1.65;1.10;;;;;;;15.54;77.86;92682.63;4782072;30;20050;-93
2021/08/09 02:21:59;;;;;;;1.95;1.33;;;;;;;15.47;78.66;92674.41;4778480;30;20055;-94
2021/08/09 02:25:13;;;;;;;1.35;0.98;;;;;;;15.47;78.71;92684.94;4760192;30;20109;-94
2021/08/09 02:32:34;;;;;;;1.40;1.27;;;;;;;15.32;79.20;92667.72;4776657;30;20051;-93
2021/08/09 02:36:12;;;;;;;;;;;;;;;;;;;;;
2021/08/09 02:39:19;;;;;;;1.23;0.90;;;;;;;15.32;79.15;92665.09;4770524;30;20048;-93
2021/08/09 02:42:30;;;;;;;;;;;;;;;;;;;;;
2021/08/09 02:45:40;;;;;;;1.65;1.40;;;;;;;15.70;77.74;92714.56;4755435;30;20071;-93
2021/08/09 02:48:35;;;;;;;1.27;1.02;;;;;;;15.58;77.79;92694.09;4759127;30;20051;-93
2021/08/09 02:51:57;;;;;;;1.85;1.40;;;;;;;15.40;77.88;92677.50;4757623;30;20443;-94
2021/08/09 02:55:01;;;;;;;2.35;1.77;;;;;;;15.49;78.01;92688.06;4750954;30;20055;-93
2021/08/09 02:57:46;;;;;;;2.20;1.35;;;;;;;15.65;77.73;92716.59;4769557;30;20117;-94
2021/08/09 03:01:15;;;;;;;;;;;;;;;;;;;;;
2021/08/09 03:04:06;;;;;;;1.73;1.38;;;;;;;15.51;77.41;92691.13;4739086;30;20086;-94
2021/08/09 03:10:52;;;;;;;;;;;;;;;;;;;;;
2021/08/09 03:17:53;;;;;;;;;;;;;;;;;;;;;
2021/08/09 03:20:53;;;;;;;2.08;1.02;;;;;;;15.68;76.83;92721.25;4754867;30;20040;-93
2021/08/09 03:23:59;;;;;;;2.08;1.10;;;;;;;15.31;76.83;92666.19;4750474;30;20052;-93
2021/08/09 03:30:29;;;;;;;10.75;1.85;;;;;;;15.61;77.15;92727.00;4761631;30;20062;-93
2021/08/09 03:33:49;;;;;;;1.55;1.25;;;;;;;15.40;77.19;92701.25;4761039;30;20036;-93
2021/08/09 03:37:15;;;;;;;;;;;;;;;;;;;;;
2021/08/09 03:40:36;;;;;;;0.85;0.70;;;;;;;15.52;77.60;92727.00;4759120;30;20055;-92
2021/08/09 03:44:07;;;;;;;1.65;1.05;;;;;;;15.47;77.16;92727.16;4761588;30;20050;-93
2021/08/09 03:47:22;;;;;;;1.88;1.25;;;;;;;15.47;77.13;92732.44;4760864;30;20055;-95
2021/08/09 03:51:22;;;;;;;;;;;;;;;;;;;;;
2021/08/09 03:57:16;;;;;;;;;;;;;;;;;;;;;
2021/08/09 04:00:06;;;;;;;2.63;1.17;;;;;;;15.39;78.19;92733.19;4757879;30;20051;-92
2021/08/09 04:06:21;;;;;;;1.88;1.17;;;;;;;15.11;77.45;92690.53;4747543;30;20066;-93
2021/08/09 04:13:19;;;;;;;1.52;1.02;;;;;;;15.26;77.03;92720.91;4727693;30;20054;-93
2021/08/09 04:23:48;;;;;;;;;;;;;;;;;;;;;
2021/08/09 04:26:55;;;;;;;1.10;0.98;;;;;;;15.19;77.62;92705.56;4774627;30;20131;-92
2021/08/09 04:33:45;;;;;;;1.88;1.42;;;;;;;15.49;78.18;92761.13;4760080;30;20051;-93
2021/08/09 04:40:33;;;;;;;;;;;;;;;;;;;;;
2021/08/09 04:43:40;;;;;;;1.45;1.17;;;;;;;15.65;78.17;92785.19;4771830;30;20155;-95
2021/08/09 04:47:02;;;;;;;;;;;;;;;;;;;;;
2021/08/09 04:50:26;;;;;;;;;;;;;;;;;;;;;
2021/08/09 04:57:01;;;;;;;;;;;;;;;;;;;;;
2021/08/09 04:59:52;;;;;;;1.23;1.10;;;;;;;15.49;77.93;92746.09;4755455;30;20048;-93
2021/08/09 05:03:13;;;;;;;;;;;;;;;;;;;;;
2021/08/09 05:06:22;;;;;;;1.83;1.45;;;;;;;15.70;76.66;92758.66;4784501;30;20057;-94
2021/08/09 05:19:16;;;;;;;1.90;1.52;;;;;;;16.16;77.64;92818.00;4782742;30;20410;-95
2021/08/09 05:21:54;;;;;;;2.13;1.17;;;;;;;16.05;77.52;92787.72;4760705;30;20475;-95
2021/08/09 05:25:46;;;;;;;1.85;1.30;;;;;;;16.36;77.51;92814.69;4761347;30;20468;-94
2021/08/09 05:28:40;;;;;;;;;;;;;;;;;;;;;
2021/08/09 05:31:45;;;;;;;3.88;2.10;;;;;;;16.60;77.73;92826.63;4786025;30;20088;-95
2021/08/09 05:35:05;;;;;;;;;;;;;;;;;;;;;
2021/08/09 05:49:55;;;;;;;;;;;;;;;;;;;;;
2021/08/09 05:56:36;;;;;;;3.25;1.83;;;;;;;17.04;77.03;92769.09;4715155;30;20133;-95
2021/08/09 06:03:41;;;;;;;;;;;;;;;;;;;;;
2021/08/09 06:07:19;;;;;;;1.35;1.15;;;;;;;17.98;75.51;92829.72;4778328;30;20035;-95
2021/08/09 06:10:52;;;;;;;6.22;2.05;;;;;;;18.24;75.03;92840.13;4769888;30;20058;-95
2021/08/09 06:13:50;;;;;;;1.55;1.10;;;;;;;18.36;74.25;92823.50;4777142;30;20043;-95
2021/08/09 06:16:44;;;;;;;3.25;1.70;;;;;;;19.49;69.90;92801.03;4734242;30;20575;-95
2021/08/09 06:19:33;;;;;;;;;;;;;;;;;;;;;
2021/08/09 06:22:22;;;;;;;1.40;1.13;;;;;;;23.23;59.07;92808.59;4772080;30;20135;-96
2021/08/09 06:25:18;;;;;;;2.60;1.83;;;;;;;25.23;51.85;92812.25;4743697;30;20042;-96
2021/08/09 06:28:34;;;;;;;1.85;1.23;;;;;;;26.51;48.25;92824.94;4752282;30;20059;-96
2021/08/09 06:31:25;;;;;;;2.20;1.42;;;;;;;26.73;47.59;92858.03;4756224;30;20051;-94
2021/08/09 06:34:37;;;;;;;3.55;1.80;;;;;;;24.02;51.78;92819.69;4754094;30;20044;-96
2021/08/09 06:40:20;;;;;;;2.97;1.75;;;;;;;25.44;50.37;92853.75;4774319;30;20387;-95
2021/08/09 06:43:09;;;;;;;2.67;1.70;;;;;;;24.96;49.63;92827.69;4757906;30;20058;-95
2021/08/09 06:46:15;;;;;;;2.95;1.88;;;;;;;26.12;48.22;92867.66;4769280;30;20044;-95
2021/08/09 06:49:48;;;;;;;;;;;;;;;;;;;;;
2021/08/09 06:52:22;;;;;;;1.38;1.25;;;;;;;22.89;56.79;92882.34;4753611;30;20134;-96
2021/08/09 06:55:34;;;;;;;;;;;;;;;;;;;;;
2021/08/09 06:58:59;;;;;;;;;;;;;;;;;;;;;
2021/08/09 07:02:53;;;;;;;;;;;;;;;;;;;;;
2021/08/09 07:06:21;;;;;;;;;;;;;;;;;;;;;
2021/08/09 07:09:29;;;;;;;;;;;;;;;;;;;;;
2021/08/09 07:16:27;;;;;;;;;;;;;;;;;;;;;
2021/08/09 07:26:33;;;;;;;;;;;;;;;;;;;;;
2021/08/09 07:29:34;;;;;;;;;;;;;;;;;;;;;
2021/08/09 07:33:05;;;;;;;;;;;;;;;;;;;;;
2021/08/09 07:56:22;;;;;;;;;;;;;;;;;;;;;
2021/08/09 07:59:53;;;;;;;2.45;1.67;;;;;;;21.21;64.05;92906.06;4627777;30;20051;-94
2021/08/09 08:03:36;;;;;;;0.88;0.85;;;;;;;20.67;64.71;92877.28;4618916;31;20090;-93
2021/08/09 08:07:15;;;;;;;;;;;;;;;;;;;;;
2021/08/09 08:17:26;;;;;;;1.52;1.15;;;;;;;20.86;66.98;92919.22;4788099;30;20051;-77
2021/08/09 08:19:53;;;;;;;1.85;1.20;;;;;;;21.40;63.60;92913.38;4770654;30;20048;-78
2021/08/09 08:22:19;;;;;;;2.33;1.50;;;;;;;21.03;66.32;92936.75;4770566;30;20084;-77
2021/08/09 08:24:45;;;;;;;1.65;1.23;;;;;;;21.15;62.21;92937.47;4764945;30;20071;-78
2021/08/09 08:27:12;;;;;;;2.55;1.60;;;;;;;21.45;55.98;92934.44;4788297;30;20054;-79
2021/08/09 08:29:40;;;;;;;3.75;1.20;;;;;;;21.14;58.10;92938.59;4774633;30;20031;-78
2021/08/09 08:32:06;;;;;;;1.95;1.48;;;;;;;21.65;58.78;92940.66;4773449;30;20050;-79
2021/08/09 08:34:32;;;;;;;2.70;1.90;;;;;;;22.09;59.52;92937.88;4771584;30;20048;-78
2021/08/09 08:36:58;;;;;;;3.30;1.70;;;;;;;22.37;61.49;92947.63;4781744;30;20058;-78
2021/08/09 08:39:24;;;;;;;2.10;1.45;;;;;;;21.92;61.75;92952.31;4786013;30;20039;-79
2021/08/09 08:41:52;;;;;;;2.22;1.40;;;;;;;22.22;62.20;92952.66;4769433;29;20066;-78
2021/08/09 08:44:21;;;;;;;3.08;2.17;;;;;;;22.41;59.96;92949.25;4763691;30;20049;-78
2021/08/09 08:46:48;;;;;;;2.35;1.60;;;;;;;22.38;58.37;92959.84;4788146;30;20039;-78
2021/08/09 08:49:15;;;;;;;2.50;1.58;;;;;;;22.30;59.21;92952.81;4773667;30;20038;-78
2021/08/09 08:51:44;;;;;;;2.13;1.25;;;;;;;22.57;59.03;92959.88;4767940;30;20043;-79
2021/08/09 08:54:12;;;;;;;3.05;1.40;;;;;;;22.74;58.84;92963.25;4771508;30;20051;-78
2021/08/09 08:56:42;;;;;;;2.85;1.77;;;;;;;23.02;58.68;92966.53;4781748;29;20040;-78
2021/08/09 08:59:14;;;;;;;3.33;1.90;;;;;;;23.10;57.96;92980.78;4778113;30;20053;-78
2021/08/09 09:01:42;;;;;;;2.92;1.58;;;;;;;23.14;58.05;92980.84;4779100;29;20047;-78
2021/08/09 09:04:28;;;;;;;4.03;2.17;;;;;;;23.55;55.65;92968.63;4782172;29;20023;-79
2021/08/09 09:07:04;;;;;;;2.95;1.88;;;;;;;23.23;56.65;92982.16;4784349;29;20247;-78
2021/08/09 09:09:37;;;;;;;2.65;1.42;;;;;;;23.05;58.17;92981.81;4764157;30;20050;-78
2021/08/09 09:12:17;;;;;;;1.58;1.17;;;;;;;23.11;56.52;92984.25;4781101;30;20047;-78
2021/08/09 09:14:43;;;;;;;2.60;1.83;;;;;;;22.54;59.30;92983.81;4790604;29;20031;-79
2021/08/09 09:17:09;;;;;;;1.67;1.20;;;;;;;22.77;58.80;92983.91;4807204;29;20042;-79
2021/08/09 09:19:40;;;;;;;2.08;1.23;;;;;;;22.35;59.94;92981.88;4808421;29;20043;-78
2021/08/09 09:22:19;;;;;;;1.80;1.27;;;;;;;22.45;58.77;92986.69;4807496;29;20155;-79
2021/08/09 09:24:52;;;;;;;4.05;2.20;;;;;;;22.38;59.22;92981.97;4805457;29;20436;-78
2021/08/09 09:27:29;;;;;;;1.77;1.17;;;;;;;22.72;59.00;92981.50;4806359;29;20114;-79
2021/08/09 09:29:55;;;;;;;1.27;0.95;;;;;;;22.60;59.55;92980.50;4809399;29;20098;-78
2021/08/09 09:32:23;;;;;;;1.92;1.40;;;;;;;22.99;57.75;92983.25;4791887;29;20117;-78
2021/08/09 09:34:55;;;;;;;2.42;1.70;;;;;;;22.99;58.73;92993.09;4792772;29;20455;-78
2021/08/09 09:37:28;;;;;;;3.13;1.75;;;;;;;22.81;58.56;92993.53;4790467;29;20058;-78
2021/08/09 09:40:04;;;;;;;2.40;1.67;;;;;;;23.03;57.52;92985.97;4808996;29;20045;-78
2021/08/09 09:42:40;;;;;;;3.38;2.08;;;;;;;22.98;57.37;92989.69;4807816;29;20042;-78
2021/08/09 09:45:29;;;;;;;3.40;1.75;;;;;;;22.98;57.50;92992.34;4808009;29;20079;-78
2021/08/09 09:48:06;;;;;;;2.38;1.55;;;;;;;22.80;58.50;92993.88;4797050;29;20042;-78
2021/08/09 09:50:36;;;;;;;1.88;1.25;;;;;;;22.49;60.29;92997.41;4805002;29;20532;-78
2021/08/09 09:53:15;;;;;;;2.72;1.73;;;;;;;22.16;60.83;93001.25;4809492;29;20506;-78
2021/08/09 09:55:42;;;;;;;2.83;1.58;;;;;;;22.44;60.15;93006.47;4760961;30;20035;-78
2021/08/09 09:58:08;;;;;;;6.82;2.00;;;;;;;22.38;58.96;93005.19;4803296;29;20042;-79
2021/08/09 10:00:35;;;;;;;2.42;1.65;;;;;;;23.19;58.38;93000.06;4781694;29;20042;-77
2021/08/09 10:03:01;;;;;;;2.00;1.40;;;;;;;22.66;59.25;92997.81;4802649;29;20087;-78
2021/08/09 10:05:27;;;;;;;2.72;1.98;;;;;;;22.58;60.15;92998.00;4805201;29;20379;-78
2021/08/09 10:07:54;;;;;;;3.55;1.80;;;;;;;23.24;58.12;92999.00;4789569;29;20506;-78
2021/08/09 10:10:24;;;;;;;1.67;1.27;;;;;;;23.29;57.88;92990.69;4799530;29;20046;-77
2021/08/09 10:12:51;;;;;;;4.95;2.17;;;;;;;24.07;56.56;92988.63;4783447;29;20043;-77
2021/08/09 10:15:19;;;;;;;3.20;1.90;;;;;;;24.06;56.76;92988.97;4780084;30;20129;-79
2021/08/09 10:17:47;;;;;;;1.88;1.20;;;;;;;24.14;56.01;92995.97;4785212;30;20156;-80
2021/08/09 10:20:16;;;;;;;7.55;2.05;;;;;;;24.39;53.71;92992.91;4787517;29;20060;-84
2021/08/09 10:22:57;;;;;;;2.03;1.40;;;;;;;24.20;54.25;92986.50;4785999;29;20091;-77
2021/08/09 10:25:43;;;;;;;2.63;1.67;;;;;;;22.56;60.17;92990.34;4770619;30;20451;-79
2021/08/09 10:28:09;;;;;;;2.92;1.60;;;;;;;22.93;59.48;92989.97;4766618;30;20044;-78
2021/08/09 10:30:37;;;;;;;3.15;2.17;;;;;;;23.36;58.04;92990.81;4777911;30;20581;-78
2021/08/09 10:33:10;;;;;;;3.25;2.15;;;;;;;22.75;59.93;92991.50;4783690;30;20042;-78
2021/08/09 10:35:39;;;;;;;2.85;1.65;;;;;;;23.35;56.85;92996.50;4760681;30;20548;-80
2021/08/09 10:38:13;;;;;;;2.65;1.67;;;;;;;22.93;60.00;92995.31;4774360;30;20027;-78
2021/08/09 10:40:38;;;;;;;3.13;1.77;;;;;;;22.96;58.52;92993.81;4777874;30;20035;-79
2021/08/09 10:43:04;;;;;;;4.65;1.70;;;;;;;;;;4771750;30;20035;-77
2021/08/09 10:45:40;;;;;;;2.28;1.55;;;;;;;22.86;58.42;93000.50;4783349;29;20686;-78
2021/08/09 10:48:08;;;;;;;4.82;2.63;;;;;;;23.07;56.94;92994.84;4786177;30;20040;-80
2021/08/09 10:50:39;;;;;;;2.25;1.60;;;;;;;22.90;56.78;92982.66;4786273;30;20050;-79
2021/08/09 10:53:29;;;;;;;3.10;2.08;;;;;;;23.12;57.20;93001.78;4785014;30;20546;-77
2021/08/09 10:55:56;;;;;;;1.63;1.33;;;;;;;23.09;57.14;92997.16;4760205;30;20046;-79
2021/08/09 10:58:52;;;;;;;4.25;2.15;;;;;;;23.39;55.67;93000.00;4754433;30;20514;-79
2021/08/09 11:01:23;;;;;;;2.03;1.20;;;;;;;23.36;56.41;93000.72;4746894;29;20138;-77
2021/08/09 11:04:01;;;;;;;4.07;1.80;;;;;;;22.78;55.21;92998.78;4777300;30;20049;-77
2021/08/09 11:06:53;;;;;;;2.40;1.25;;;;;;;22.90;52.60;93000.56;4756446;30;20047;-77
2021/08/09 11:09:34;;;;;;;0.57;0.55;;;;;;;23.03;52.45;93000.13;4765825;30;20063;-77
2021/08/09 11:12:17;;;;;;;4.75;1.90;;;;;;;23.02;52.19;93003.91;4780830;30;20050;-77
2021/08/09 11:15:11;;;;;;;2.20;1.30;;;;;;;23.13;54.57;92998.00;4776329;29;20068;-78
2021/08/09 11:17:36;;;;;;;3.15;1.80;;;;;;;23.45;53.00;92999.38;4767403;30;20074;-79
2021/08/09 11:20:14;;;;;;;1.92;1.40;;;;;;;23.62;51.75;93003.50;4784417;30;20070;-78
2021/08/09 11:22:42;;;;;;;1.65;1.25;;;;;;;23.85;54.18;92995.53;4761765;30;20050;-79
2021/08/09 11:25:30;;;;;;;1.73;1.30;;;;;;;23.89;52.98;92996.34;4777774;29;20054;-78
2021/08/09 11:27:59;;;;;;;3.08;1.65;;;;;;;23.85;53.06;93006.22;4764747;30;20432;-77
2021/08/09 11:30:39;;;;;;;1.17;0.98;;;;;;;23.32;54.35;92995.31;4784333;30;20043;-76
2021/08/09 11:33:05;;;;;;;4.10;1.90;;;;;;;23.09;54.37;93002.50;4781603;29;20043;-79
2021/08/09 11:35:42;;;;;;;1.80;1.35;;;;;;;23.47;54.46;93002.47;4789147;30;20040;-77
2021/08/09 11:38:08;;;;;;;3.17;1.80;;;;;;;23.87;54.15;92993.25;4773061;30;20537;-79
2021/08/09 11:40:34;;;;;;;2.85;1.80;;;;;;;23.23;54.15;93002.78;4761312;30;20048;-80
2021/08/09 11:43:00;;;;;;;3.40;1.90;;;;;;;23.86;52.29;93002.41;4787883;29;20070;-78
2021/08/09 11:45:28;;;;;;;3.40;1.70;;;;;;;24.07;54.02;92998.53;4776550;30;20059;-79
2021/08/09 11:47:55;;;;;;;2.30;1.48;;;;;;;23.92;54.05;92999.44;4786786;29;20110;-79
2021/08/09 11:50:25;;;;;;;2.40;1.60;;;;;;;23.40;53.06;92999.66;4768630;30;20517;-81
2021/08/09 11:52:52;;;;;;;2.08;1.40;;;;;;;23.56;54.62;92996.13;4785029;29;20046;-77
2021/08/09 11:55:21;;;;;;;1.83;1.23;;;;;;;23.85;54.83;92990.16;4781684;29;20032;-80
2021/08/09 11:57:48;;;;;;;2.22;1.35;;;;;;;24.33;51.41;92991.66;4789286;30;20126;-79
2021/08/09 12:00:15;;;;;;;2.28;1.77;;;;;;;24.18;53.98;92986.09;4765276;30;20031;-79
2021/08/09 12:03:06;;;;;;;2.28;1.45;;;;;;;24.17;52.42;92989.13;4768080;30;20387;-80
2021/08/09 12:05:32;;;;;;;1.63;1.02;;;;;;;23.80;54.70;92982.47;4786076;29;20049;-83
2021/08/09 12:08:05;;;;;;;3.60;2.08;;;;;;;24.25;52.71;92986.22;4789340;30;20039;-80
2021/08/09 12:10:35;;;;;;;2.45;1.70;;;;;;;24.55;54.30;92974.81;4790606;30;20047;-80
2021/08/09 12:13:02;;;;;;;1.23;1.05;;;;;;;24.17;53.56;92984.56;4764704;30;20055;-80
2021/08/09 12:15:28;;;;;;;3.95;2.30;;;;;;;23.59;56.49;92987.41;4787018;30;20055;-80
2021/08/09 12:18:11;;;;;;;3.00;1.85;;;;;;;24.23;53.47;92979.69;4772819;30;20078;-79
2021/08/09 12:20:37;;;;;;;4.57;1.60;;;;;;;24.78;54.02;92980.09;4784492;29;20043;-82
2021/08/09 12:23:22;;;;;;;1.80;1.05;;;;;;;24.60;54.11;92987.88;4765578;30;20530;-82
2021/08/09 12:25:47;;;;;;;3.00;1.70;;;;;;;24.24;54.50;92984.66;4779807;29;20040;-81
2021/08/09 12:28:13;;;;;;;3.05;1.80;;;;;;;24.27;53.19;92972.47;4787313;30;20082;-80
2021/08/09 12:30:56;;;;;;;1.75;1.10;;;;;;;24.81;52.37;92979.34;4783504;29;20047;-83
2021/08/09 12:33:23;;;;;;;2.88;1.98;;;;;;;25.52;51.61;92973.28;4788539;30;20067;-83
2021/08/09 12:35:49;;;;;;;2.22;1.48;;;;;;;24.41;54.10;92985.28;4767499;29;20558;-82
2021/08/09 12:38:15;;;;;;;3.67;1.60;;;;;;;24.27;55.11;92983.16;4780973;30;20510;-83
2021/08/09 12:40:52;;;;;;;2.03;1.30;;;;;;;24.63;53.63;92989.84;4768727;30;20035;-81
2021/08/09 12:43:20;;;;;;;5.43;1.95;;;;;;;24.62;53.97;92982.16;4781483;29;20055;-83
2021/08/09 12:45:47;;;;;;;2.13;1.40;;;;;;;24.01;56.16;92976.66;4762620;30;20053;-82
2021/08/09 12:48:14;;;;;;;5.07;2.45;;;;;;;24.56;53.51;92973.66;4782721;29;20440;-81
2021/08/09 12:50:41;;;;;;;3.22;1.80;;;;;;;24.75;54.65;92974.69;4775997;30;20070;-79
2021/08/09 12:53:10;;;;;;;1.55;1.10;;;;;;;24.44;52.61;92979.97;4761325;30;20104;-80
2021/08/09 12:55:36;;;;;;;3.72;1.92;;;;;;;24.85;50.49;92977.50;4789312;29;20066;-80
2021/08/09 12:58:04;;;;;;;3.75;1.65;;;;;;;24.84;52.26;92977.88;4790817;30;20053;-79
2021/08/09 13:00:30;;;;;;;2.95;1.73;;;;;;;25.12;51.65;92972.84;4783906;30;20047;-81
2021/08/09 13:02:56;;;;;;;2.00;1.40;;;;;;;24.82;54.55;92970.19;4770162;30;20684;-80
2021/08/09 13:05:22;;;;;;;4.07;1.92;;;;;;;24.94;55.51;92982.56;4787273;30;20521;-80
2021/08/09 13:07:47;;;;;;;3.40;1.90;;;;;;;24.79;52.99;92980.84;4772879;30;20044;-81
2021/08/09 13:10:39;;;;;;;2.35;1.85;;;;;;;24.26;54.65;92981.63;4773181;30;20510;-81
2021/08/09 13:13:04;;;;;;;1.60;1.27;;;;;;;24.45;53.69;92986.88;4684907;30;20068;-80
2021/08/09 13:15:30;;;;;;;2.80;1.83;;;;;;;24.30;53.95;92977.88;4762307;30;20039;-80
2021/08/09 13:17:56;;;;;;;3.15;1.80;;;;;;;24.61;54.02;92978.72;4807116;29;20035;-82
2021/08/09 13:20:23;;;;;;;4.63;2.40;;;;;;;24.86;53.61;92980.97;4806386;29;20043;-78
2021/08/09 13:22:48;;;;;;;2.85;1.85;;;;;;;25.14;51.89;92978.59;4786322;29;20545;-78
2021/08/09 13:25:14;;;;;;;16.65;1.80;;;;;;;24.75;52.43;92980.81;4756721;29;20166;-78
2021/08/09 13:27:40;;;;;;;4.10;2.22;;;;;;;25.16;51.41;92972.13;4787631;29;20045;-79
2021/08/09 13:30:06;;;;;;;2.20;1.42;;;;;;;24.88;53.95;92968.75;4802889;29;20046;-80
2021/08/09 13:32:32;;;;;;;5.72;2.08;;;;;;;24.77;54.43;92983.09;4787036;29;20126;-78
2021/08/09 13:34:59;;;;;;;2.28;1.67;;;;;;;24.07;55.04;92982.47;4785193;29;20122;-80
2021/08/09 13:37:24;;;;;;;3.83;1.80;;;;;;;24.21;54.81;92974.69;4790257;29;20114;-78
2021/08/09 13:39:51;;;;;;;3.40;1.95;;;;;;;24.48;54.48;92988.09;4786558;29;20055;-79
2021/08/09 13:42:17;;;;;;;2.88;1.40;;;;;;;24.46;54.97;92984.97;4803753;29;20091;-80
2021/08/09 13:44:43;;;;;;;4.03;2.17;;;;;;;24.24;54.62;92983.91;4804109;29;20462;-81
2021/08/09 13:47:12;;;;;;;2.15;1.63;;;;;;;24.58;53.79;92976.00;4804184;29;20054;-81
2021/08/09 13:49:38;;;;;;;3.85;1.80;;;;;;;24.19;54.66;92981.53;4806401;29;20137;-80
2021/08/09 13:52:03;;;;;;;3.45;1.90;;;;;;;23.87;55.96;92982.56;4805299;29;20054;-80
2021/08/09 13:54:29;;;;;;;4.93;1.73;;;;;;;23.52;58.62;92980.03;4771268;29;20046;-79
2021/08/09 13:56:54;;;;;;;2.42;1.60;;;;;;;23.99;57.22;92978.16;4806366;29;20034;-78
2021/08/09 13:59:20;;;;;;;3.63;2.08;;;;;;;23.97;57.04;92969.72;4806402;29;20039;-78
2021/08/09 14:01:46;;;;;;;3.30;1.80;;;;;;;23.69;58.39;92978.81;4804627;29;20035;-79
2021/08/09 14:04:11;;;;;;;2.95;1.60;;;;;;;24.09;56.78;92983.69;4805948;29;20043;-77
2021/08/09 14:06:37;;;;;;;12.50;2.28;;;;;;;24.10;57.89;92985.22;4806876;29;20038;-78
2021/08/09 14:09:03;;;;;;;3.35;1.85;;;;;;;24.45;55.88;92978.88;4790230;29;20051;-79
2021/08/09 14:11:28;;;;;;;3.67;2.05;;;;;;;24.47;55.09;92978.47;4805024;29;20038;-78
2021/08/09 14:13:54;;;;;;;3.05;2.00;;;;;;;24.70;55.45;92973.88;4805683;29;20076;-77
2021/08/09 14:16:19;;;;;;;2.10;1.30;;;;;;;25.05;55.05;92972.75;4788660;29;20094;-79
2021/08/09 14:18:45;;;;;;;2.63;1.63;;;;;;;25.30;54.31;92980.34;4788854;29;20518;-79
2021/08/09 14:21:11;;;;;;;3.15;2.08;;;;;;;24.93;55.26;92983.72;4790580;29;20035;-79
2021/08/09 14:23:37;;;;;;;2.50;1.60;;;;;;;25.11;54.50;92982.03;4788421;29;20665;-76
2021/08/09 14:26:03;;;;;;;1.67;1.10;;;;;;;24.77;54.46;92981.22;4768652;29;20069;-78
2021/08/09 14:28:29;;;;;;;2.63;1.52;;;;;;;24.18;57.41;92979.97;4789759;29;20039;-78
2021/08/09 14:30:55;;;;;;;2.58;1.63;;;;;;;24.77;55.95;92978.56;4804934;29;20675;-77
2021/08/09 14:33:22;;;;;;;4.60;1.83;;;;;;;24.92;55.50;92977.56;4772729;29;20097;-79
2021/08/09 14:35:49;;;;;;;3.53;1.75;;;;;;;24.58;54.19;92973.31;4806794;29;20054;-79
2021/08/09 14:38:17;;;;;;;3.83;1.80;;;;;;;25.16;54.37;92964.09;4789897;29;20110;-78
2021/08/09 14:40:45;;;;;;;3.78;1.83;;;;;;;24.59;54.33;92959.59;4788603;29;20057;-80
2021/08/09 14:43:11;;;;;;;2.90;1.90;;;;;;;24.52;55.18;92970.19;4804942;29;20042;-78
2021/08/09 14:45:37;;;;;;;3.35;1.88;;;;;;;24.44;56.79;92965.84;4789985;29;20455;-77
2021/08/09 14:48:03;;;;;;;3.05;1.60;;;;;;;24.46;56.96;92969.69;4790810;29;20058;-77
2021/08/09 14:50:30;;;;;;;2.65;1.23;;;;;;;24.08;57.80;92970.66;4789854;29;20046;-78
2021/08/09 14:52:56;;;;;;;2.45;1.55;;;;;;;24.36;58.31;92977.56;4790841;29;20035;-78
2021/08/09 14:55:23;;;;;;;2.47;1.65;;;;;;;24.76;57.39;92970.88;4775336;29;20145;-79
2021/08/09 14:57:49;;;;;;;4.40;2.13;;;;;;;25.17;55.26;92966.38;4788855;29;20371;-78
2021/08/09 15:00:15;;;;;;;2.25;1.63;;;;;;;24.87;55.56;92964.50;4790809;29;20074;-77
2021/08/09 15:03:07;;;;;;;3.53;2.00;;;;;;;24.84;55.97;92967.94;4781405;29;20285;-79
2021/08/09 15:05:47;;;;;;;4.38;2.33;;;;;;;24.72;55.97;92976.97;4795771;29;20057;-79
2021/08/09 15:08:13;;;;;;;4.43;1.88;;;;;;;24.72;57.19;92976.16;4794638;29;20133;-78
2021/08/09 15:10:38;;;;;;;3.08;2.05;;;;;;;24.96;55.01;92976.84;4806018;29;20038;-77
2021/08/09 15:13:04;;;;;;;4.20;2.03;;;;;;;25.46;54.99;92978.19;4810334;29;20045;-79
2021/08/09 15:15:34;;;;;;;3.63;2.22;;;;;;;25.34;54.09;92971.19;4806929;29;20137;-79
2021/08/09 15:18:05;;;;;;;3.95;2.38;;;;;;;25.17;54.74;92974.41;4809251;29;20038;-77
2021/08/09 15:20:30;;;;;;;3.42;2.00;;;;;;;25.06;54.78;92974.31;4809411;29;20050;-78
2021/08/09 15:22:56;;;;;;;2.92;1.67;;;;;;;24.64;55.87;92977.22;4809949;29;20031;-78
2021/08/09 15:25:22;;;;;;;2.80;1.75;;;;;;;24.67;57.27;92974.59;4810284;29;20043;-79
2021/08/09 15:27:48;;;;;;;2.78;1.77;;;;;;;24.69;57.11;92976.91;4805521;29;20371;-77
2021/08/09 15:30:16;;;;;;;3.42;2.10;;;;;;;24.54;57.42;92973.25;4792211;29;20576;-79
2021/08/09 15:32:42;;;;;;;2.83;1.88;;;;;;;24.47;57.96;92978.47;4793649;29;20031;-78
2021/08/09 15:35:08;;;;;;;3.88;2.42;;;;;;;24.49;57.66;92970.91;4809151;29;20053;-80
2021/08/09 15:37:34;;;;;;;4.15;2.30;;;;;;;24.52;57.96;92972.88;4807619;29;20117;-77
2021/08/09 15:40:00;;;;;;;3.42;2.17;;;;;;;24.61;57.99;92973.38;4792757;29;20047;-79
2021/08/09 15:42:25;;;;;;;3.38;2.03;;;;;;;24.64;58.73;92978.00;4808947;29;20049;-79
2021/08/09 15:44:51;;;;;;;2.92;2.03;;;;;;;24.56;60.47;92975.56;4792979;29;20363;-78
2021/08/09 15:47:17;;;;;;;4.03;2.22;;;;;;;24.53;60.51;92979.75;4781074;29;20186;-80
2021/08/09 15:49:45;;;;;;;3.85;2.25;;;;;;;24.51;59.98;92976.66;4809171;29;20602;-78
2021/08/09 15:52:11;;;;;;;4.30;2.50;;;;;;;24.47;60.48;92975.81;4791252;30;20047;-78
2021/08/09 15:54:37;;;;;;;3.88;1.90;;;;;;;24.46;60.24;92979.63;4791731;30;20047;-77
2021/08/09 15:57:03;;;;;;;2.80;1.77;;;;;;;24.44;59.78;92982.66;4776450;30;20299;-78
2021/08/09 15:59:29;;;;;;;7.95;2.05;;;;;;;24.40;59.85;92978.38;4792664;30;20046;-79
2021/08/09 16:01:55;;;;;;;2.85;1.90;;;;;;;24.36;60.32;92977.56;4799814;29;20027;-78
2021/08/09 16:04:21;;;;;;;3.30;1.95;;;;;;;24.39;61.25;92976.84;4792846;29;20060;-78
2021/08/09 16:06:51;;;;;;;3.15;1.92;;;;;;;24.36;60.73;92978.31;4778512;29;20039;-78
2021/08/09 16:09:16;;;;;;;2.78;1.88;;;;;;;24.42;61.20;92978.81;4793177;29;20062;-77
2021/08/09 16:11:43;;;;;;;3.70;2.03;;;;;;;24.42;60.58;92976.88;4788040;29;20418;-79
2021/08/09 16:14:08;;;;;;;3.95;2.13;;;;;;;24.46;61.38;92979.63;4762425;29;20078;-79
2021/08/09 16:16:36;;;;;;;3.30;2.00;;;;;;;24.48;60.54;92972.81;4806060;29;20055;-77
2021/08/09 16:19:03;;;;;;;4.20;2.25;;;;;;;24.45;61.12;92970.03;4792874;29;20502;-79
2021/08/09 16:21:28;;;;;;;3.40;2.00;;;;;;;24.39;60.03;92969.59;4806301;29;20043;-78
2021/08/09 16:23:54;;;;;;;3.05;2.05;;;;;;;24.22;60.77;92962.84;4807949;29;20051;-78
2021/08/09 16:26:21;;;;;;;4.25;2.03;;;;;;;23.99;63.61;92973.59;4791572;29;20034;-79
2021/08/09 16:28:47;;;;;;;3.10;1.95;;;;;;;23.88;62.52;92973.41;4777783;29;20542;-77
2021/08/09 16:31:12;;;;;;;2.75;1.75;;;;;;;23.94;62.17;92967.78;4808376;29;20038;-79
2021/08/09 16:33:38;;;;;;;2.55;1.67;;;;;;;23.93;62.69;92979.59;4792609;29;20042;-75
2021/08/09 16:36:04;;;;;;;3.60;2.20;;;;;;;23.88;62.74;92976.09;4807799;29;20398;-80
2021/08/09 16:38:32;;;;;;;4.45;1.95;;;;;;;23.85;62.54;92979.47;4808315;29;20050;-80
2021/08/09 16:40:58;;;;;;;3.13;1.75;;;;;;;23.80;62.76;92971.75;4807889;29;20026;-78
2021/08/09 16:43:23;;;;;;;2.55;1.42;;;;;;;23.72;62.63;92975.41;4776690;29;20453;-78
2021/08/09 16:45:49;;;;;;;5.93;2.13;;;;;;;23.69;62.95;92970.78;4791993;29;20072;-75